Time,TemperatureF,DewpointF,PressureIn,WindDirection,WindDirectionDegrees,WindSpeedMPH,WindSpeedGustMPH,Humidity,HourlyPrecipIn,Conditions,Clouds,dailyrainin,SoftwareType,DateUTC
2013-03-03 00:00:00,26.9,20.4,30.12,NNE,12,1.0,6.0,76,0.00,,---,0.00,VWS V14.00,2013-03-03 05:00:00,
2013-03-03 00:30:00,26.8,20.3,30.11,North,4,2.0,4.0,76,0.00,,---,0.00,VWS V14.00,2013-03-03 05:30:00,
2013-03-03 01:00:00,26.9,20.7,30.11,NE,43,0.0,4.0,77,0.00,,---,0.00,VWS V14.00,2013-03-03 06:00:00,
2013-03-03 01:30:00,27.0,21.1,30.11,NNW,337,3.0,3.0,78,0.00,,---,0.00,VWS V14.00,2013-03-03 06:30:00,
2013-03-03 02:00:00,27.4,21.1,30.11,NW,319,4.0,6.0,77,0.00,,---,0.00,VWS V14.00,2013-03-03 07:00:00,
2013-03-03 02:30:00,27.6,20.1,30.10,North,356,5.0,12.0,73,0.00,,---,0.00,VWS V14.00,2013-03-03 07:30:00,
2013-03-03 03:00:00,27.0,19.5,30.10,NNE,30,6.0,12.0,73,0.00,,---,0.00,VWS V14.00,2013-03-03 08:00:00,
2013-03-03 03:30:00,26.6,18.5,30.09,NNW,335,4.0,12.0,71,0.00,,---,0.00,VWS V14.00,2013-03-03 08:30:00,
2013-03-03 04:00:00,26.3,18.2,30.09,North,4,5.0,12.0,71,0.00,,---,0.00,VWS V14.00,2013-03-03 09:00:00,
2013-03-03 04:30:00,26.0,18.5,30.09,NNW,346,6.0,9.0,73,0.00,,---,0.00,VWS V14.00,2013-03-03 09:30:00,
2013-03-03 05:00:00,25.7,18.9,30.09,NNE,30,3.0,9.0,75,0.00,,---,0.00,VWS V14.00,2013-03-03 10:00:00,
2013-03-03 05:30:00,25.0,17.9,30.09,NNE,23,7.0,11.0,74,0.00,,---,0.00,VWS V14.00,2013-03-03 10:30:00,
2013-03-03 06:00:00,24.3,17.8,30.10,NNE,23,4.0,12.0,76,0.00,,---,0.00,VWS V14.00,2013-03-03 11:00:00,
2013-03-03 06:30:00,23.6,16.9,30.10,NNE,30,4.0,9.0,75,0.00,,---,0.00,VWS V14.00,2013-03-03 11:30:00,
2013-03-03 07:00:00,22.8,16.7,30.11,NNW,348,3.0,7.0,77,0.00,,---,0.00,VWS V14.00,2013-03-03 12:00:00,
2013-03-03 07:30:00,23.0,16.9,30.12,North,360,2.0,6.0,77,0.00,,---,0.00,VWS V14.00,2013-03-03 12:30:00,
2013-03-03 08:00:00,23.3,16.9,30.13,NNW,344,8.0,9.0,76,0.00,,---,0.00,VWS V14.00,2013-03-03 13:00:00,
2013-03-03 08:30:00,23.9,17.5,30.13,North,354,4.0,10.0,76,0.00,,---,0.00,VWS V14.00,2013-03-03 13:30:00,
2013-03-03 09:00:00,24.4,17.9,30.13,NNW,333,8.0,11.0,76,0.00,,---,0.00,VWS V14.00,2013-03-03 14:00:00,
2013-03-03 09:30:00,25.3,18.2,30.13,NNW,343,6.0,12.0,74,0.00,,---,0.00,VWS V14.00,2013-03-03 14:30:00,
2013-03-03 10:00:00,25.5,18.7,30.13,NNW,333,4.0,16.0,75,0.00,,---,0.00,VWS V14.00,2013-03-03 15:00:00,
2013-03-03 10:30:00,27.6,20.7,30.12,NNW,338,6.0,13.0,75,0.00,,---,0.00,VWS V14.01,2013-03-03 15:30:00,
2013-03-03 11:00:00,26.2,19.7,30.12,NNW,327,6.0,10.0,76,0.00,,---,0.00,VWS V14.00,2013-03-03 16:00:00,
2013-03-03 11:30:00,27.6,20.7,30.12,NNW,338,6.0,13.0,75,0.00,,---,0.00,VWS V14.00,2013-03-03 16:30:00,
2013-03-03 12:00:00,27.8,20.9,30.11,NW,308,8.0,13.0,75,0.00,,---,0.00,VWS V14.00,2013-03-03 17:00:00,
2013-03-03 12:30:00,28.1,20.9,30.11,NNE,16,8.0,13.0,74,0.00,,---,0.00,VWS V14.00,2013-03-03 17:30:00,
2013-03-03 13:00:00,29.1,20.9,30.10,NNW,335,11.0,13.0,71,0.00,,---,0.00,VWS V14.00,2013-03-03 18:00:00,
2013-03-03 13:30:00,29.6,20.7,30.09,NW,312,11.0,14.0,69,0.00,,---,0.00,VWS V14.00,2013-03-03 18:30:00,
2013-03-03 14:00:00,29.8,21.2,30.08,NW,323,5.0,14.0,70,0.00,,---,0.00,VWS V14.00,2013-03-03 19:00:00,
2013-03-03 14:30:00,30.1,21.5,30.07,North,360,9.0,15.0,70,0.00,,---,0.00,VWS V14.00,2013-03-03 19:30:00,
2013-03-03 15:00:00,30.6,21.6,30.07,NNW,341,11.0,14.0,69,0.00,,---,0.00,VWS V14.00,2013-03-03 20:00:00,
2013-03-03 15:30:00,30.1,21.5,30.07,NW,321,8.0,14.0,70,0.00,,---,0.00,VWS V14.00,2013-03-03 20:30:00,
2013-03-03 16:00:00,30.3,20.7,30.07,NW,307,8.0,17.0,67,0.00,,---,0.00,VWS V14.00,2013-03-03 21:00:00,
2013-03-03 16:30:00,31.4,20.3,30.07,NW,323,7.0,15.0,63,0.00,,---,0.00,VWS V14.00,2013-03-03 21:30:00,
2013-03-03 17:00:00,32.2,21.0,30.08,NW,311,11.0,12.0,63,0.00,,---,0.00,VWS V14.00,2013-03-03 22:00:00,
2013-03-03 17:30:00,30.8,20.4,30.08,NW,326,8.0,15.0,65,0.00,,---,0.00,VWS V14.00,2013-03-03 22:30:00,
2013-03-03 18:00:00,30.6,21.3,30.08,NNW,342,7.0,12.0,68,0.00,,---,0.00,VWS V14.00,2013-03-03 23:00:00,
2013-03-03 18:30:00,29.4,21.2,30.09,NW,322,7.0,12.0,71,0.00,,---,0.00,VWS V14.00,2013-03-03 23:30:00,
2013-03-03 19:00:00,28.2,19.7,30.09,NNW,344,6.0,13.0,70,0.00,,---,0.00,VWS V14.00,2013-03-04 00:00:00,
2013-03-03 19:30:00,27.8,20.0,30.10,NW,323,6.0,10.0,72,0.00,,---,0.00,VWS V14.00,2013-03-04 00:30:00,
2013-03-03 20:00:00,27.3,20.4,30.11,NW,315,4.0,9.0,75,0.00,,---,0.00,VWS V14.00,2013-03-04 01:00:00,
2013-03-03 20:30:00,26.7,19.9,30.11,NNW,333,4.0,7.0,75,0.00,,---,0.00,VWS V14.00,2013-03-04 01:30:00,
2013-03-03 21:00:00,26.2,19.4,30.11,NNW,340,4.0,6.0,75,0.00,,---,0.00,VWS V14.00,2013-03-04 02:00:00,
2013-03-03 21:30:00,25.7,19.2,30.11,NW,319,4.0,7.0,76,0.00,,---,0.00,VWS V14.00,2013-03-04 02:30:00,
2013-03-03 22:00:00,24.8,18.9,30.11,NNW,331,3.0,5.0,78,0.00,,---,0.00,VWS V14.00,2013-03-04 03:00:00,
2013-03-03 22:30:00,24.3,18.7,30.11,North,4,3.0,5.0,79,0.00,,---,0.00,VWS V14.00,2013-03-04 03:30:00,
2013-03-03 23:00:00,23.4,17.9,30.11,North,356,0.0,4.0,79,0.00,,---,0.00,VWS V14.00,2013-03-04 04:00:00,
2013-03-03 23:30:00,22.7,17.8,30.12,North,360,0.0,0.0,81,0.00,,---,0.00,VWS V14.00,2013-03-04 04:30:00,